createdAt,value
2019-03-27T00:01:45.659Z,11.10
2019-03-27T00:04:34.729Z,11.00
2019-03-27T00:07:25.276Z,11.00
2019-03-27T00:09:55.684Z,10.90
2019-03-27T00:12:26.077Z,10.80
2019-03-27T00:14:56.429Z,10.80
2019-03-27T00:17:26.815Z,10.70
2019-03-27T00:20:15.966Z,10.70
2019-03-27T00:22:46.390Z,10.60
2019-03-27T00:25:16.684Z,10.50
2019-03-27T00:27:47.087Z,10.60
2019-03-27T00:30:17.853Z,10.60
2019-03-27T00:32:48.236Z,10.60
2019-03-27T00:35:18.562Z,10.60
2019-03-27T00:37:48.921Z,10.70
2019-03-27T00:40:19.329Z,10.70
2019-03-27T00:42:49.722Z,10.80
2019-03-27T00:45:26.439Z,10.80
2019-03-27T00:47:52.258Z,10.50
2019-03-27T00:50:22.698Z,10.50
2019-03-27T00:53:14.603Z,10.50
2019-03-27T00:55:44.948Z,10.40
2019-03-27T00:58:15.352Z,10.30
2019-03-27T01:01:16.766Z,10.40
2019-03-27T01:03:47.247Z,10.40
2019-03-27T01:06:36.447Z,10.50
2019-03-27T01:09:07.521Z,10.40
2019-03-27T01:11:56.626Z,10.50
2019-03-27T01:14:27.212Z,10.40
2019-03-27T01:16:57.590Z,10.40
2019-03-27T01:19:28.015Z,10.40
2019-03-27T01:22:17.262Z,10.30
2019-03-27T01:24:47.773Z,10.30
2019-03-27T01:27:18.167Z,10.20
2019-03-27T01:29:48.674Z,10.20
2019-03-27T01:32:39.427Z,10.20
2019-03-27T01:35:28.608Z,10.20
2019-03-27T01:37:58.993Z,10.20
2019-03-27T01:40:29.241Z,10.30
2019-03-27T01:42:59.709Z,10.30
2019-03-27T01:45:29.986Z,10.30
2019-03-27T01:48:00.534Z,10.30
2019-03-27T01:50:30.886Z,10.30
2019-03-27T01:53:01.290Z,10.30
2019-03-27T01:55:31.641Z,10.30
2019-03-27T01:58:02.111Z,10.30
2019-03-27T02:00:32.435Z,10.30
2019-03-27T02:03:02.783Z,10.10
2019-03-27T02:05:33.114Z,10.10
2019-03-27T02:08:03.594Z,10.10
2019-03-27T02:10:34.013Z,10.10
2019-03-27T02:13:04.450Z,10.10
2019-03-27T02:15:34.774Z,10.00
2019-03-27T02:18:05.199Z,10.00
2019-03-27T02:20:35.577Z,9.90
2019-03-27T02:23:06.034Z,9.90
2019-03-27T02:25:56.298Z,9.80
2019-03-27T02:28:26.659Z,9.70
2019-03-27T02:30:57.082Z,9.60
2019-03-27T02:33:27.529Z,9.70
2019-03-27T02:35:57.933Z,9.80
2019-03-27T02:38:28.300Z,9.80
2019-03-27T02:40:58.687Z,9.90
2019-03-27T02:43:29.146Z,9.90
2019-03-27T02:45:59.548Z,9.90
2019-03-27T02:48:29.935Z,9.80
2019-03-27T02:51:19.110Z,9.80
2019-03-27T02:53:49.530Z,9.80
2019-03-27T02:56:19.917Z,9.90
2019-03-27T02:58:50.342Z,9.90
2019-03-27T03:01:20.730Z,9.90
2019-03-27T03:03:51.108Z,9.80
2019-03-27T03:06:59.037Z,9.80
2019-03-27T03:09:29.458Z,9.80
2019-03-27T03:11:59.979Z,9.80
2019-03-27T03:14:30.331Z,9.80
2019-03-27T03:17:00.787Z,9.80
2019-03-27T03:19:31.122Z,9.80
2019-03-27T03:22:20.379Z,9.70
2019-03-27T03:24:50.785Z,9.70
2019-03-27T03:27:21.166Z,9.80
2019-03-27T03:29:51.590Z,9.70
2019-03-27T03:32:21.995Z,9.80
2019-03-27T03:34:52.346Z,9.80
2019-03-27T03:37:22.714Z,9.70
2019-03-27T03:39:53.086Z,9.60
2019-03-27T03:42:23.518Z,9.50
2019-03-27T03:44:53.859Z,9.30
2019-03-27T03:47:42.941Z,9.30
2019-03-27T03:50:36.347Z,9.30
2019-03-27T03:53:09.199Z,9.20
2019-03-27T03:55:40.817Z,8.60
2019-03-27T03:58:16.106Z,8.40
2019-03-27T04:01:05.750Z,8.20
2019-03-27T04:03:37.410Z,8.40
2019-03-27T04:06:08.055Z,8.60
2019-03-27T04:08:38.479Z,8.70
2019-03-27T04:11:08.899Z,8.70
2019-03-27T04:13:39.315Z,8.30
2019-03-27T04:16:09.720Z,8.20
2019-03-27T04:18:40.139Z,8.20
2019-03-27T04:21:10.494Z,8.00
2019-03-27T04:23:40.904Z,7.90
2019-03-27T04:26:11.364Z,8.10
2019-03-27T04:28:41.802Z,8.20
2019-03-27T04:31:12.123Z,8.30
2019-03-27T04:33:42.554Z,8.30
2019-03-27T04:36:12.967Z,8.20
2019-03-27T04:38:43.528Z,8.20
2019-03-27T04:41:32.579Z,8.20
2019-03-27T04:44:03.031Z,8.30
2019-03-27T04:46:33.460Z,8.40
2019-03-27T04:49:07.487Z,8.50
2019-03-27T04:51:35.858Z,8.50
2019-03-27T04:54:06.196Z,8.30
2019-03-27T04:56:36.630Z,8.40
2019-03-27T04:59:06.937Z,8.40
2019-03-27T05:01:37.384Z,8.40
2019-03-27T05:04:08.243Z,8.20
2019-03-27T05:06:38.709Z,8.00
2019-03-27T05:09:27.861Z,7.90
2019-03-27T05:11:58.189Z,7.70
2019-03-27T05:14:28.717Z,7.60
2019-03-27T05:16:59.110Z,7.60
2019-03-27T05:19:29.558Z,7.80
2019-03-27T05:21:59.965Z,7.90
2019-03-27T05:24:30.257Z,8.00
2019-03-27T05:27:00.726Z,7.70
2019-03-27T05:29:31.074Z,7.60
2019-03-27T05:32:01.460Z,7.40
2019-03-27T05:34:31.786Z,7.30
2019-03-27T05:37:02.220Z,7.30
2019-03-27T05:39:32.577Z,7.30
2019-03-27T05:42:03.125Z,7.20
2019-03-27T05:44:33.446Z,7.10
2019-03-27T05:47:03.849Z,7.00
2019-03-27T05:49:34.219Z,7.00
2019-03-27T05:52:04.608Z,7.10
2019-03-27T05:54:35.086Z,7.20
2019-03-27T05:57:05.526Z,7.10
2019-03-27T05:59:35.882Z,7.00
2019-03-27T06:02:25.194Z,7.10
2019-03-27T06:04:55.582Z,7.10
2019-03-27T06:07:26.046Z,7.20
2019-03-27T06:10:16.623Z,7.60
2019-03-27T06:13:09.249Z,7.70
2019-03-27T06:15:39.599Z,7.80
2019-03-27T06:18:13.244Z,8.00
2019-03-27T06:20:42.138Z,8.10
2019-03-27T06:23:31.273Z,8.00
2019-03-27T06:26:01.721Z,7.90
2019-03-27T06:28:32.059Z,7.80
2019-03-27T06:31:21.370Z,7.60
2019-03-27T06:33:51.710Z,7.60
2019-03-27T06:36:22.194Z,7.60
2019-03-27T06:38:52.591Z,7.80
2019-03-27T06:41:23.005Z,8.00
2019-03-27T06:43:53.310Z,8.10
2019-03-27T06:46:23.808Z,8.30
2019-03-27T06:48:55.132Z,8.40
2019-03-27T06:51:39.201Z,8.30
2019-03-27T06:53:58.207Z,8.50
2019-03-27T06:56:28.547Z,8.20
2019-03-27T06:58:58.945Z,8.10
2019-03-27T07:01:48.066Z,8.10
2019-03-27T07:04:18.485Z,8.10
2019-03-27T07:07:07.595Z,8.30
2019-03-27T07:09:38.080Z,8.50
2019-03-27T07:12:20.470Z,8.40
2019-03-27T07:14:40.517Z,8.40
2019-03-27T07:17:10.954Z,8.40
2019-03-27T07:20:00.095Z,8.20
2019-03-27T07:22:30.651Z,8.10
2019-03-27T07:25:00.962Z,8.20
2019-03-27T07:27:31.402Z,8.20
2019-03-27T07:30:01.718Z,8.40
2019-03-27T07:32:32.166Z,8.50
2019-03-27T07:35:02.601Z,8.70
2019-03-27T07:37:51.661Z,8.80
2019-03-27T07:40:43.904Z,9.20
2019-03-27T07:43:14.319Z,9.30
2019-03-27T07:45:44.790Z,9.20
2019-03-27T07:48:15.322Z,9.10
2019-03-27T07:50:45.765Z,9.30
2019-03-27T07:53:16.193Z,9.40
2019-03-27T07:55:46.609Z,9.50
2019-03-27T07:58:16.962Z,9.60
2019-03-27T08:00:47.376Z,9.90
2019-03-27T08:03:17.835Z,10.20
2019-03-27T08:05:48.254Z,10.00
2019-03-27T08:08:18.734Z,9.70
2019-03-27T08:10:49.167Z,10.00
2019-03-27T08:13:19.512Z,10.00
2019-03-27T08:15:49.931Z,9.90
2019-03-27T08:18:20.296Z,10.00
2019-03-27T08:20:50.727Z,10.30
2019-03-27T08:23:21.037Z,10.70
2019-03-27T08:25:51.406Z,10.90
2019-03-27T08:28:21.838Z,11.10
2019-03-27T08:30:52.201Z,11.10
2019-03-27T08:33:22.532Z,11.00
2019-03-27T08:35:52.935Z,11.00
2019-03-27T08:38:23.296Z,10.80
2019-03-27T08:40:53.773Z,10.80
2019-03-27T08:43:25.549Z,10.90
2019-03-27T08:45:57.069Z,10.80
2019-03-27T08:48:27.467Z,10.90
2019-03-27T08:50:57.936Z,11.00
2019-03-27T08:53:47.167Z,11.20
2019-03-27T08:56:17.515Z,11.30
2019-03-27T08:58:47.954Z,11.30
2019-03-27T09:01:18.254Z,11.30
2019-03-27T09:03:48.780Z,11.40
2019-03-27T09:06:37.845Z,11.50
2019-03-27T09:09:10.428Z,11.70
2019-03-27T09:11:40.770Z,11.90
2019-03-27T09:14:11.173Z,11.80
2019-03-27T09:19:35.900Z,12.20
2019-03-27T09:22:03.146Z,12.30
2019-03-27T09:24:33.581Z,12.50
2019-03-27T09:27:04.054Z,12.40
2019-03-27T09:29:34.462Z,12.40
2019-03-27T09:32:04.888Z,12.50
2019-03-27T09:34:35.303Z,12.50
2019-03-27T09:37:05.769Z,12.70
2019-03-27T09:39:36.139Z,12.70
2019-03-27T09:42:06.755Z,12.90
2019-03-27T09:44:37.225Z,13.00
2019-03-27T09:47:07.575Z,13.10
2019-03-27T09:49:48.969Z,13.20
2019-03-27T09:52:10.157Z,13.30
2019-03-27T09:54:40.553Z,13.30
2019-03-27T09:57:10.984Z,13.30
2019-03-27T10:00:00.432Z,13.40
2019-03-27T10:02:30.787Z,13.40
2019-03-27T10:05:01.151Z,13.40
2019-03-27T10:07:31.565Z,13.50
2019-03-27T10:10:21.779Z,13.70
2019-03-27T10:12:52.195Z,13.70
2019-03-27T10:15:22.646Z,13.60
2019-03-27T10:17:53.008Z,13.80
2019-03-27T10:20:23.458Z,13.60
2019-03-27T10:22:53.803Z,13.60
2019-03-27T10:25:24.177Z,13.80
2019-03-27T10:27:54.606Z,13.80
2019-03-27T10:30:24.981Z,13.80
2019-03-27T10:32:55.506Z,13.70
2019-03-27T10:35:25.887Z,13.70
2019-03-27T10:37:56.185Z,13.90
2019-03-27T10:40:26.565Z,14.00
2019-03-27T10:42:56.971Z,14.30
2019-03-27T10:45:27.375Z,14.50
2019-03-27T10:47:57.723Z,14.50
2019-03-27T10:50:28.112Z,14.40
2019-03-27T10:52:58.528Z,14.40
2019-03-27T10:55:28.903Z,14.50
2019-03-27T10:58:19.347Z,14.40
2019-03-27T11:00:49.816Z,14.30
2019-03-27T11:03:20.238Z,14.40
2019-03-27T11:05:50.637Z,14.40
2019-03-27T11:08:21.104Z,14.40
2019-03-27T11:10:51.494Z,14.60
2019-03-27T11:13:21.860Z,14.70
2019-03-27T11:15:52.232Z,14.70
2019-03-27T11:18:22.771Z,14.70
2019-03-27T11:21:11.991Z,14.70
2019-03-27T11:23:42.352Z,14.80
2019-03-27T11:26:12.848Z,14.70
2019-03-27T11:28:43.187Z,14.70
2019-03-27T11:31:13.645Z,14.70
2019-03-27T11:33:44.002Z,14.70
2019-03-27T11:36:14.316Z,14.70
2019-03-27T11:38:44.684Z,14.80
2019-03-27T11:41:15.081Z,14.80
2019-03-27T11:44:04.164Z,14.80
2019-03-27T11:46:53.378Z,14.70
2019-03-27T11:49:23.746Z,14.70
2019-03-27T11:51:55.138Z,14.90
2019-03-27T11:54:25.624Z,14.90
2019-03-27T11:56:55.942Z,14.90
2019-03-27T11:59:26.323Z,14.90
2019-03-27T12:01:56.770Z,14.90
2019-03-27T12:04:27.130Z,14.90
2019-03-27T12:06:57.608Z,14.90
2019-03-27T12:09:28.039Z,15.00
2019-03-27T12:11:58.487Z,15.00
2019-03-27T12:14:48.852Z,15.00
2019-03-27T12:18:12.379Z,15.20
2019-03-27T12:20:43.264Z,15.40
2019-03-27T12:23:13.883Z,15.40
2019-03-27T12:25:44.418Z,15.20
2019-03-27T12:28:15.007Z,15.10
2019-03-27T12:30:45.403Z,15.20
2019-03-27T12:33:15.712Z,15.40
2019-03-27T12:35:46.016Z,15.40
2019-03-27T12:38:16.462Z,15.50
2019-03-27T12:40:46.805Z,15.40
2019-03-27T12:43:17.134Z,15.50
2019-03-27T12:45:47.551Z,15.50
2019-03-27T12:48:18.050Z,15.70
2019-03-27T12:50:48.510Z,15.70
2019-03-27T12:53:18.880Z,15.60
2019-03-27T12:55:49.217Z,15.60
2019-03-27T12:58:19.829Z,15.60
2019-03-27T13:00:50.274Z,15.60
2019-03-27T13:03:20.707Z,15.80
2019-03-27T13:05:51.078Z,15.80
2019-03-27T13:08:21.617Z,15.80
2019-03-27T13:10:51.926Z,15.80
2019-03-27T13:13:22.363Z,15.90
2019-03-27T13:15:52.694Z,15.90
2019-03-27T13:18:23.130Z,15.80
2019-03-27T13:20:53.555Z,15.90
2019-03-27T13:23:23.892Z,15.80
2019-03-27T13:25:54.328Z,15.80
2019-03-27T13:28:24.703Z,15.60
2019-03-27T13:30:55.062Z,15.50
2019-03-27T13:33:25.510Z,15.60
2019-03-27T13:35:55.832Z,15.60
2019-03-27T13:38:26.323Z,15.70
2019-03-27T13:40:56.658Z,15.70
2019-03-27T13:43:27.156Z,15.50
2019-03-27T13:45:57.477Z,15.40
2019-03-27T13:48:27.925Z,15.50
2019-03-27T13:50:58.329Z,15.40
2019-03-27T13:53:28.746Z,15.60
2019-03-27T13:55:59.077Z,15.60
2019-03-27T13:58:29.435Z,15.90
2019-03-27T14:00:59.923Z,16.00
2019-03-27T14:03:30.305Z,16.00
2019-03-27T14:06:00.796Z,16.00
2019-03-27T14:08:31.327Z,15.90
2019-03-27T14:11:01.670Z,15.90
2019-03-27T14:13:32.039Z,15.80
2019-03-27T14:16:02.432Z,16.00
2019-03-27T14:18:32.761Z,16.10
2019-03-27T14:21:03.196Z,16.10
2019-03-27T14:23:33.635Z,16.10
2019-03-27T14:26:04.100Z,16.20
2019-03-27T14:28:34.443Z,16.20
2019-03-27T14:31:04.801Z,16.10
2019-03-27T14:33:35.211Z,16.10
2019-03-27T14:36:05.774Z,16.20
2019-03-27T14:38:36.151Z,16.20
2019-03-27T14:41:06.634Z,16.20
2019-03-27T14:43:36.986Z,16.20
2019-03-27T14:46:07.310Z,15.90
2019-03-27T14:48:37.675Z,15.60
2019-03-27T14:51:08.182Z,15.50
2019-03-27T14:53:38.542Z,15.50
2019-03-27T14:56:09.042Z,15.20
2019-03-27T14:58:39.503Z,15.20
2019-03-27T15:01:09.922Z,15.20
2019-03-27T15:03:40.320Z,15.20
2019-03-27T15:06:10.735Z,15.20
2019-03-27T15:08:41.202Z,15.30
2019-03-27T15:11:11.521Z,15.30
2019-03-27T15:13:42.030Z,15.30
2019-03-27T15:16:12.378Z,15.20
2019-03-27T15:18:42.667Z,15.20
2019-03-27T15:21:13.082Z,15.20
2019-03-27T15:23:43.522Z,15.20
2019-03-27T15:26:14.056Z,15.20
2019-03-27T15:28:44.437Z,15.20
2019-03-27T15:31:20.859Z,15.10
2019-03-27T15:33:47.026Z,15.10
2019-03-27T15:36:17.405Z,14.90
2019-03-27T15:38:47.853Z,14.80
2019-03-27T15:41:18.194Z,14.80
2019-03-27T15:43:48.665Z,14.80
2019-03-27T15:46:19.031Z,14.70
2019-03-27T15:48:49.400Z,14.80
2019-03-27T15:51:19.722Z,14.80
2019-03-27T15:53:50.239Z,14.70
2019-03-27T15:56:20.595Z,14.70
2019-03-27T15:58:51.068Z,14.80
2019-03-27T16:01:21.392Z,14.80
2019-03-27T16:03:51.875Z,14.90
2019-03-27T16:06:22.190Z,14.90
2019-03-27T16:08:52.674Z,14.90
2019-03-27T16:11:23.078Z,14.90
2019-03-27T16:13:53.477Z,14.90
2019-03-27T16:16:23.800Z,14.90
2019-03-27T16:18:54.121Z,14.80
2019-03-27T16:21:24.452Z,14.70
2019-03-27T16:24:05.894Z,14.60
2019-03-27T16:26:27.181Z,14.60
2019-03-27T16:28:57.648Z,14.50
2019-03-27T16:31:28.170Z,14.60
2019-03-27T16:33:58.622Z,14.50
2019-03-27T16:36:29.018Z,14.40
2019-03-27T16:38:59.411Z,14.40
2019-03-27T16:41:29.901Z,14.40
2019-03-27T16:44:00.190Z,14.50
2019-03-27T16:46:30.659Z,14.50
2019-03-27T16:49:01.049Z,14.40
2019-03-27T16:51:33.426Z,14.30
2019-03-27T16:54:03.854Z,14.30
2019-03-27T16:56:35.780Z,14.30
2019-03-27T16:59:06.177Z,14.20
2019-03-27T17:01:36.570Z,14.20
2019-03-27T17:04:06.962Z,14.20
2019-03-27T17:06:37.301Z,14.20
2019-03-27T17:09:09.067Z,14.20
2019-03-27T17:11:39.548Z,14.10
2019-03-27T17:14:09.966Z,14.10
2019-03-27T17:16:40.474Z,14.10
2019-03-27T17:19:10.904Z,14.00
2019-03-27T17:21:41.300Z,14.00
2019-03-27T17:24:11.791Z,14.00
2019-03-27T17:26:42.132Z,13.90
2019-03-27T17:29:12.569Z,13.90
2019-03-27T17:31:43.005Z,13.80
2019-03-27T17:34:13.366Z,13.90
2019-03-27T17:36:43.906Z,13.90
2019-03-27T17:39:14.195Z,13.80
2019-03-27T17:41:44.603Z,13.80
2019-03-27T17:44:14.939Z,13.70
2019-03-27T17:46:45.379Z,13.70
2019-03-27T17:49:15.776Z,13.70
2019-03-27T17:51:46.175Z,13.60
2019-03-27T17:54:20.820Z,13.60
2019-03-27T17:56:48.676Z,13.60
2019-03-27T17:59:19.968Z,13.60
2019-03-27T18:01:50.476Z,13.50
2019-03-27T18:04:20.891Z,13.50
2019-03-27T18:06:51.574Z,13.40
2019-03-27T18:09:21.903Z,13.40
2019-03-27T18:11:52.425Z,13.40
2019-03-27T18:14:22.737Z,13.30
2019-03-27T18:16:53.140Z,13.20
2019-03-27T18:19:23.491Z,13.20
2019-03-27T18:22:06.699Z,13.20
2019-03-27T18:24:26.015Z,13.20
2019-03-27T18:26:58.070Z,13.20
2019-03-27T18:29:28.446Z,13.10
2019-03-27T18:31:58.775Z,13.10
2019-03-27T18:34:29.236Z,13.00
2019-03-27T18:36:59.590Z,13.00
2019-03-27T18:39:30.066Z,13.00
2019-03-27T18:42:00.561Z,13.00
2019-03-27T18:44:31.006Z,12.90
2019-03-27T18:47:01.420Z,12.90
2019-03-27T18:49:31.840Z,12.90
2019-03-27T18:52:02.302Z,12.80
2019-03-27T18:54:32.712Z,12.80
2019-03-27T18:57:03.038Z,12.80
2019-03-27T18:59:33.456Z,12.70
2019-03-27T19:02:03.855Z,12.70
2019-03-27T19:04:34.367Z,12.70
2019-03-27T19:07:04.908Z,12.80
2019-03-27T19:09:35.309Z,12.70
2019-03-27T19:12:05.743Z,12.70
2019-03-27T19:14:37.195Z,12.70
2019-03-27T19:17:07.608Z,12.60
2019-03-27T19:19:37.980Z,12.70
2019-03-27T19:22:08.424Z,12.60
2019-03-27T19:24:38.889Z,12.60
2019-03-27T19:27:12.138Z,12.70
2019-03-27T19:29:44.836Z,12.60
2019-03-27T19:32:14.630Z,12.60
2019-03-27T19:34:45.107Z,12.40
2019-03-27T19:37:15.559Z,12.30
2019-03-27T19:39:46.012Z,12.10
2019-03-27T19:42:16.637Z,12.10
2019-03-27T19:44:47.128Z,12.20
2019-03-27T19:47:17.525Z,12.10
2019-03-27T19:49:47.900Z,12.00
2019-03-27T19:52:18.310Z,12.00
2019-03-27T19:54:48.751Z,12.10
2019-03-27T19:57:19.209Z,12.00
2019-03-27T19:59:49.772Z,11.90
2019-03-27T20:02:20.221Z,11.90
2019-03-27T20:04:50.753Z,11.90
2019-03-27T20:07:21.104Z,12.00
2019-03-27T20:09:51.713Z,12.00
2019-03-27T20:12:22.118Z,12.00
2019-03-27T20:14:52.548Z,11.90
2019-03-27T20:17:23.054Z,12.00
2019-03-27T20:19:53.408Z,12.00
2019-03-27T20:22:23.799Z,12.00
2019-03-27T20:24:54.375Z,11.90
2019-03-27T20:27:24.969Z,11.90
2019-03-27T20:29:55.538Z,11.80
2019-03-27T20:32:25.958Z,11.80
2019-03-27T20:34:56.442Z,11.80
2019-03-27T20:37:26.870Z,11.80
2019-03-27T20:39:57.341Z,11.80
2019-03-27T20:42:27.718Z,11.80
2019-03-27T20:44:58.169Z,11.70
2019-03-27T20:47:28.622Z,11.70
2019-03-27T20:49:58.971Z,11.50
2019-03-27T20:52:29.583Z,11.40
2019-03-27T20:54:59.963Z,11.40
2019-03-27T20:57:30.402Z,11.50
2019-03-27T21:00:00.888Z,11.40
2019-03-27T21:02:31.410Z,11.40
2019-03-27T21:05:01.894Z,11.50
2019-03-27T21:07:32.416Z,11.50
2019-03-27T21:10:02.891Z,11.60
2019-03-27T21:12:33.267Z,11.40
2019-03-27T21:15:03.788Z,11.40
2019-03-27T21:17:34.269Z,11.20
2019-03-27T21:20:05.737Z,11.20
2019-03-27T21:22:36.817Z,11.00
2019-03-27T21:25:09.619Z,11.10
2019-03-27T21:27:40.062Z,11.00
2019-03-27T21:30:10.887Z,10.90
2019-03-27T21:32:41.226Z,10.80
2019-03-27T21:35:11.913Z,10.70
2019-03-27T21:37:42.318Z,10.70
2019-03-27T21:40:14.198Z,10.70
2019-03-27T21:42:44.549Z,10.70
2019-03-27T21:45:15.122Z,10.80
2019-03-27T21:47:45.493Z,10.80
2019-03-27T21:50:15.936Z,10.70
2019-03-27T21:52:59.543Z,10.70
2019-03-27T21:55:22.766Z,10.70
2019-03-27T21:57:50.461Z,10.80
2019-03-27T22:00:36.518Z,10.70
2019-03-27T22:03:07.266Z,10.80
2019-03-27T22:05:37.698Z,10.70
2019-03-27T22:08:07.998Z,10.70
2019-03-27T22:10:38.373Z,10.80
2019-03-27T22:13:08.845Z,10.90
2019-03-27T22:15:39.252Z,10.80
2019-03-27T22:18:09.727Z,10.90
2019-03-27T22:20:40.089Z,10.80
2019-03-27T22:23:10.547Z,10.90
2019-03-27T22:25:40.907Z,10.80
2019-03-27T22:28:11.328Z,10.90
2019-03-27T22:30:41.608Z,10.90
2019-03-27T22:33:12.075Z,10.90
2019-03-27T22:35:42.494Z,11.00
2019-03-27T22:38:12.974Z,11.10
2019-03-27T22:40:43.429Z,11.10
2019-03-27T22:43:13.875Z,11.10
2019-03-27T22:45:44.230Z,11.00
2019-03-27T22:48:14.628Z,11.00
2019-03-27T22:50:45.057Z,10.90
2019-03-27T22:53:15.429Z,10.80
2019-03-27T22:55:50.361Z,10.90
2019-03-27T22:58:17.845Z,10.80
2019-03-27T23:00:51.193Z,10.80
2019-03-27T23:03:21.497Z,10.90
2019-03-27T23:05:51.898Z,10.70
2019-03-27T23:08:22.249Z,10.60
2019-03-27T23:10:52.638Z,10.50
2019-03-27T23:13:23.121Z,10.50
2019-03-27T23:15:53.507Z,10.40
2019-03-27T23:18:23.925Z,10.50
2019-03-27T23:20:54.405Z,10.20
2019-03-27T23:23:24.836Z,10.10
2019-03-27T23:26:03.059Z,10.30
2019-03-27T23:28:27.196Z,10.40
2019-03-27T23:30:57.757Z,10.50
2019-03-27T23:33:28.154Z,10.50
2019-03-27T23:35:58.583Z,10.50
2019-03-27T23:38:28.934Z,10.50
2019-03-27T23:40:59.386Z,10.40
2019-03-27T23:43:29.721Z,10.40
2019-03-27T23:46:00.091Z,10.10
2019-03-27T23:48:30.466Z,10.20
2019-03-27T23:51:00.762Z,10.20
2019-03-27T23:53:31.286Z,10.20
2019-03-27T23:56:01.644Z,10.10
2019-03-27T23:58:32.086Z,10.00
